New Iberia, Louisiana
Current Conditions -  °F | °C
As of 6:53 AM on Saturday 25 Oct 2014 (Local Time) from KARA Reporting Station
Clear Clear  
Wind Chill: 53°   Ceiling: Unl
Heat Index: 53°   Visibility: 10mi
Dew Point: 48°   Wind: 3mph
Humidity: 83%   Direction: 10°N
Pressure: 30.15"   Gusts: NA
Location:  30.01°N, 91.82°W
Report Text: KARA 251153Z 01003KT 10SM CLR 12/09 A3015 RMK AO2 SLP209 T01170089 10128 20100 53010 $
Loading
Personal Weather Stations






























Interactive Weather Map New forecast layout! Learn more

10-Day Weather Forecast

Advertisements
Track Severe Weather on mobile